EZY73KG EGBB-LEMG
Flight info
| Callsign | EZY73KG |
|---|---|
| Flight time | 2h 30m |
| Altitude | 35000 |
| Route | CPT Y321 PEPIS Q41 SAM M195 IBNID/N0452F370 M195 MARUK N621 LELNA DCT NOVAN DCT DELOG DCT CRISA DCT VULPE |
| Aircraft | A320/M-SDE3FGHIRWY/LB1 |
Departure
| Time | 2026-05-04 18:30 |
|---|---|
| Airport | Birmingham Airport (EGBB) |
Arrival
| Time | 2026-05-04 21:00 |
|---|---|
| Airport | Málaga-Costa del Sol Airport (LEMG) |
| Time | Latitude | Longitude | Altitude | Speed | Heading |
|---|---|---|---|---|---|
| 2026-05-04 17:51 | 52.45116 | -1.73490 | 324 ft | 0 kts | 141° |
| 2026-05-04 18:03 | 52.45116 | -1.73491 | 324 ft | 0 kts | 141° |
| 2026-05-04 18:05 | 52.45117 | -1.73491 | 324 ft | 0 kts | 141° |
| 2026-05-04 18:06 | 52.45117 | -1.73492 | 324 ft | 0 kts | 140° |
| 2026-05-04 18:20 | 52.45123 | -1.73501 | 320 ft | 4 kts | 144° |
| 2026-05-04 18:21 | 52.45140 | -1.73523 | 323 ft | 4 kts | 147° |
| 2026-05-04 18:21 | 52.45163 | -1.73536 | 320 ft | 4 kts | 190° |
| 2026-05-04 18:21 | 52.45184 | -1.73517 | 321 ft | 4 kts | 233° |
| 2026-05-04 18:21 | 52.45181 | -1.73525 | 323 ft | 4 kts | 236° |
| 2026-05-04 18:22 | 52.45171 | -1.73548 | 320 ft | 0 kts | 236° |
| 2026-05-04 18:25 | 52.45170 | -1.73553 | 321 ft | 3 kts | 236° |
| 2026-05-04 18:25 | 52.45148 | -1.73606 | 323 ft | 9 kts | 236° |
| 2026-05-04 18:25 | 52.45110 | -1.73696 | 323 ft | 9 kts | 236° |
| 2026-05-04 18:25 | 52.45060 | -1.73744 | 323 ft | 8 kts | 191° |
| 2026-05-04 18:26 | 52.45012 | -1.73720 | 323 ft | 7 kts | 148° |
| 2026-05-04 18:26 | 52.44954 | -1.73653 | 323 ft | 13 kts | 147° |
| 2026-05-04 18:26 | 52.44873 | -1.73660 | 323 ft | 11 kts | 197° |
| 2026-05-04 18:26 | 52.44804 | -1.73695 | 323 ft | 10 kts | 196° |
| 2026-05-04 18:27 | 52.44743 | -1.73722 | 322 ft | 8 kts | 194° |
| 2026-05-04 18:27 | 52.44689 | -1.73706 | 323 ft | 10 kts | 147° |
| 2026-05-04 18:27 | 52.44621 | -1.73627 | 323 ft | 13 kts | 145° |
| 2026-05-04 18:27 | 52.44546 | -1.73544 | 323 ft | 13 kts | 146° |
| 2026-05-04 18:28 | 52.44474 | -1.73467 | 324 ft | 12 kts | 146° |
| 2026-05-04 18:28 | 52.44407 | -1.73406 | 324 ft | 10 kts | 169° |
| 2026-05-04 18:28 | 52.44349 | -1.73481 | 324 ft | 14 kts | 233° |
| 2026-05-04 18:28 | 52.44322 | -1.73608 | 323 ft | 12 kts | 294° |
| 2026-05-04 18:29 | 52.44384 | -1.73690 | 325 ft | 15 kts | 325° |
| 2026-05-04 18:29 | 52.44654 | -1.73990 | 324 ft | 83 kts | 326° |
| 2026-05-04 18:29 | 52.45310 | -1.74716 | 323 ft | 142 kts | 326° |
| 2026-05-04 18:29 | 52.46215 | -1.75752 | 589 ft | 167 kts | 326° |
| 2026-05-04 18:30 | 52.48260 | -1.78081 | 1622 ft | 198 kts | 327° |
| 2026-05-04 18:30 | 52.49458 | -1.79408 | 2021 ft | 216 kts | 328° |
| 2026-05-04 18:30 | 52.50865 | -1.80298 | 2711 ft | 221 kts | 356° |
| 2026-05-04 18:31 | 52.52360 | -1.79857 | 3541 ft | 226 kts | 25° |
| 2026-05-04 18:31 | 52.53524 | -1.78104 | 4345 ft | 234 kts | 59° |
| 2026-05-04 18:31 | 52.53959 | -1.75500 | 5133 ft | 241 kts | 87° |
| 2026-05-04 18:31 | 52.53741 | -1.72746 | 5945 ft | 246 kts | 104° |
| 2026-05-04 18:32 | 52.53340 | -1.69986 | 6775 ft | 249 kts | 103° |
| 2026-05-04 18:32 | 52.52777 | -1.67289 | 7567 ft | 252 kts | 121° |
| 2026-05-04 18:32 | 52.51628 | -1.64978 | 8015 ft | 273 kts | 137° |
| 2026-05-04 18:32 | 52.50233 | -1.62744 | 8643 ft | 285 kts | 136° |
| 2026-05-04 18:33 | 52.48799 | -1.60448 | 9496 ft | 290 kts | 136° |
| 2026-05-04 18:33 | 52.47366 | -1.58147 | 10315 ft | 294 kts | 137° |
| 2026-05-04 18:33 | 52.45830 | -1.55908 | 11085 ft | 298 kts | 145° |
| 2026-05-04 18:33 | 52.44012 | -1.54020 | 11376 ft | 321 kts | 150° |
| 2026-05-04 18:34 | 52.42025 | -1.52070 | 11609 ft | 344 kts | 150° |
| 2026-05-04 18:34 | 52.39926 | -1.50021 | 12085 ft | 356 kts | 150° |
| 2026-05-04 18:34 | 52.37784 | -1.47934 | 12773 ft | 361 kts | 152° |
| 2026-05-04 18:34 | 52.35465 | -1.46313 | 13488 ft | 364 kts | 165° |
| 2026-05-04 18:35 | 52.32978 | -1.45514 | 14167 ft | 366 kts | 173° |
| 2026-05-04 18:35 | 52.30443 | -1.44944 | 14851 ft | 369 kts | 173° |
| 2026-05-04 18:35 | 52.27888 | -1.44369 | 15553 ft | 371 kts | 173° |
| 2026-05-04 18:35 | 52.25322 | -1.43784 | 16220 ft | 373 kts | 173° |
| 2026-05-04 18:36 | 52.22773 | -1.43197 | 16889 ft | 376 kts | 173° |
| 2026-05-04 18:36 | 52.20177 | -1.42597 | 17550 ft | 378 kts | 173° |
| 2026-05-04 18:36 | 52.17564 | -1.41997 | 18209 ft | 380 kts | 173° |
| 2026-05-04 18:36 | 52.14938 | -1.41398 | 18798 ft | 382 kts | 173° |
| 2026-05-04 18:37 | 52.12296 | -1.40798 | 19328 ft | 384 kts | 173° |
| 2026-05-04 18:37 | 52.10528 | -1.40397 | 19694 ft | 386 kts | 174° |
| 2026-05-04 18:37 | 52.07861 | -1.39791 | 20245 ft | 388 kts | 174° |
| 2026-05-04 18:37 | 52.05181 | -1.39183 | 20782 ft | 390 kts | 174° |
| 2026-05-04 18:38 | 52.02479 | -1.38568 | 21286 ft | 392 kts | 174° |
| 2026-05-04 18:38 | 51.99761 | -1.37951 | 21804 ft | 395 kts | 174° |
| 2026-05-04 18:38 | 51.97058 | -1.37338 | 22313 ft | 397 kts | 174° |
| 2026-05-04 18:38 | 51.94316 | -1.36714 | 22818 ft | 399 kts | 174° |
| 2026-05-04 18:39 | 51.91551 | -1.36088 | 23319 ft | 401 kts | 174° |
| 2026-05-04 18:39 | 51.88778 | -1.35462 | 23774 ft | 404 kts | 174° |
| 2026-05-04 18:39 | 51.85989 | -1.34836 | 24174 ft | 406 kts | 174° |
| 2026-05-04 18:39 | 51.83179 | -1.34208 | 24558 ft | 408 kts | 174° |
| 2026-05-04 18:40 | 51.80356 | -1.33576 | 24939 ft | 411 kts | 174° |
| 2026-05-04 18:40 | 51.77512 | -1.32936 | 25323 ft | 413 kts | 173° |
| 2026-05-04 18:40 | 51.74659 | -1.32398 | 25707 ft | 414 kts | 180° |
| 2026-05-04 18:40 | 51.71801 | -1.32914 | 26079 ft | 414 kts | 195° |
| 2026-05-04 18:41 | 51.69057 | -1.34165 | 26453 ft | 416 kts | 196° |
| 2026-05-04 18:41 | 51.66266 | -1.35464 | 26833 ft | 418 kts | 196° |
| 2026-05-04 18:41 | 51.63469 | -1.36769 | 27205 ft | 420 kts | 196° |
| 2026-05-04 18:41 | 51.60657 | -1.38080 | 27569 ft | 422 kts | 196° |
| 2026-05-04 18:42 | 51.57825 | -1.39399 | 27914 ft | 424 kts | 196° |
| 2026-05-04 18:42 | 51.54986 | -1.40716 | 28249 ft | 425 kts | 196° |
| 2026-05-04 18:42 | 51.52137 | -1.42032 | 28591 ft | 427 kts | 196° |
| 2026-05-04 18:42 | 51.49271 | -1.43349 | 28918 ft | 429 kts | 195° |
| 2026-05-04 18:43 | 51.46391 | -1.44671 | 29287 ft | 430 kts | 195° |
| 2026-05-04 18:43 | 51.43514 | -1.45995 | 29637 ft | 431 kts | 195° |
| 2026-05-04 18:43 | 51.40665 | -1.47306 | 30023 ft | 431 kts | 195° |
| 2026-05-04 18:43 | 51.37792 | -1.48626 | 30406 ft | 429 kts | 195° |
| 2026-05-04 18:44 | 51.34918 | -1.49945 | 30748 ft | 429 kts | 195° |
| 2026-05-04 18:44 | 51.32980 | -1.50833 | 30968 ft | 429 kts | 195° |
| 2026-05-04 18:44 | 51.29186 | -1.52567 | 31538 ft | 426 kts | 195° |
| 2026-05-04 18:44 | 51.26339 | -1.53869 | 31911 ft | 425 kts | 195° |
| 2026-05-04 18:45 | 51.23485 | -1.55170 | 32247 ft | 425 kts | 194° |
| 2026-05-04 18:45 | 51.20638 | -1.56464 | 32561 ft | 426 kts | 194° |
| 2026-05-04 18:45 | 51.17825 | -1.57738 | 32869 ft | 426 kts | 194° |
| 2026-05-04 18:45 | 51.14975 | -1.59027 | 33175 ft | 427 kts | 194° |
| 2026-05-04 18:46 | 51.12111 | -1.60321 | 33485 ft | 427 kts | 194° |
| 2026-05-04 18:46 | 51.09250 | -1.61618 | 33796 ft | 428 kts | 194° |
| 2026-05-04 18:46 | 51.06388 | -1.62917 | 34100 ft | 428 kts | 194° |
| 2026-05-04 18:46 | 51.03514 | -1.64221 | 34361 ft | 429 kts | 194° |
| 2026-05-04 18:47 | 51.00631 | -1.65522 | 34607 ft | 430 kts | 194° |
| 2026-05-04 18:47 | 50.97752 | -1.66817 | 34844 ft | 430 kts | 195° |
| 2026-05-04 18:47 | 50.94901 | -1.68100 | 34973 ft | 432 kts | 195° |
| 2026-05-04 18:48 | 50.89100 | -1.70700 | 35016 ft | 433 kts | 195° |
| 2026-05-04 18:48 | 50.83285 | -1.73301 | 34997 ft | 434 kts | 195° |
| 2026-05-04 18:49 | 50.77503 | -1.75882 | 35004 ft | 434 kts | 194° |
| 2026-05-04 18:49 | 50.71679 | -1.78480 | 35000 ft | 434 kts | 194° |
| 2026-05-04 18:50 | 50.65864 | -1.81061 | 34998 ft | 434 kts | 194° |
| 2026-05-04 18:50 | 50.60090 | -1.83619 | 35001 ft | 433 kts | 195° |
| 2026-05-04 18:51 | 50.54271 | -1.86195 | 35004 ft | 433 kts | 194° |
| 2026-05-04 18:51 | 50.48445 | -1.88769 | 34985 ft | 435 kts | 194° |
| 2026-05-04 18:52 | 50.42652 | -1.91322 | 34982 ft | 435 kts | 194° |
| 2026-05-04 18:52 | 50.36814 | -1.93887 | 34986 ft | 436 kts | 194° |
| 2026-05-04 18:53 | 50.30959 | -1.96447 | 34987 ft | 437 kts | 194° |
| 2026-05-04 18:53 | 50.25105 | -1.99011 | 34988 ft | 437 kts | 194° |
| 2026-05-04 18:54 | 50.19234 | -2.01568 | 34991 ft | 437 kts | 194° |
| 2026-05-04 18:54 | 50.13412 | -2.04095 | 34999 ft | 437 kts | 194° |
| 2026-05-04 18:55 | 50.07536 | -2.06631 | 35002 ft | 437 kts | 194° |
| 2026-05-04 18:55 | 49.98734 | -2.10429 | 35003 ft | 437 kts | 194° |
| 2026-05-04 18:56 | 49.92887 | -2.13058 | 35012 ft | 437 kts | 196° |
| 2026-05-04 18:56 | 49.87124 | -2.15810 | 35037 ft | 436 kts | 196° |
| 2026-05-04 18:57 | 49.81319 | -2.18567 | 35044 ft | 435 kts | 196° |
| 2026-05-04 18:57 | 49.75525 | -2.21278 | 35042 ft | 434 kts | 196° |
| 2026-05-04 18:58 | 49.69740 | -2.23957 | 35048 ft | 434 kts | 196° |
| 2026-05-04 18:58 | 49.63958 | -2.26626 | 35046 ft | 433 kts | 196° |
| 2026-05-04 18:59 | 49.58172 | -2.29291 | 35025 ft | 434 kts | 196° |
| 2026-05-04 18:59 | 49.52413 | -2.31942 | 35013 ft | 435 kts | 196° |
| 2026-05-04 19:00 | 49.46617 | -2.34614 | 35011 ft | 434 kts | 195° |
| 2026-05-04 19:00 | 49.40826 | -2.37256 | 35016 ft | 433 kts | 195° |
| 2026-05-04 19:01 | 49.35043 | -2.39891 | 35016 ft | 432 kts | 195° |
| 2026-05-04 19:01 | 49.29316 | -2.42513 | 35014 ft | 432 kts | 195° |
| 2026-05-04 19:02 | 49.23550 | -2.45137 | 35014 ft | 431 kts | 195° |
| 2026-05-04 19:02 | 49.17782 | -2.47754 | 35014 ft | 431 kts | 195° |
| 2026-05-04 19:03 | 49.12069 | -2.50337 | 35012 ft | 431 kts | 195° |
| 2026-05-04 19:03 | 49.06322 | -2.52927 | 35011 ft | 430 kts | 195° |
| 2026-05-04 19:04 | 49.00576 | -2.55508 | 35014 ft | 430 kts | 195° |
| 2026-05-04 19:04 | 48.94832 | -2.58098 | 35012 ft | 430 kts | 195° |
| 2026-05-04 19:05 | 48.89094 | -2.60667 | 35010 ft | 429 kts | 195° |
| 2026-05-04 19:05 | 48.83396 | -2.63215 | 35013 ft | 430 kts | 195° |
| 2026-05-04 19:06 | 48.77645 | -2.65785 | 34985 ft | 432 kts | 195° |
| 2026-05-04 19:06 | 48.71860 | -2.68369 | 34983 ft | 433 kts | 195° |
| 2026-05-04 19:07 | 48.66056 | -2.70946 | 34984 ft | 434 kts | 195° |
| 2026-05-04 19:07 | 48.60284 | -2.73490 | 34984 ft | 434 kts | 195° |
| 2026-05-04 19:08 | 48.54479 | -2.76051 | 34988 ft | 435 kts | 195° |
| 2026-05-04 19:08 | 48.48658 | -2.78624 | 34989 ft | 435 kts | 195° |
| 2026-05-04 19:09 | 48.42841 | -2.81186 | 34992 ft | 435 kts | 195° |
| 2026-05-04 19:09 | 48.37028 | -2.83737 | 35000 ft | 435 kts | 195° |
| 2026-05-04 19:10 | 48.31258 | -2.86270 | 34998 ft | 435 kts | 195° |
| 2026-05-04 19:10 | 48.25441 | -2.88813 | 34993 ft | 434 kts | 195° |
| 2026-05-04 19:11 | 48.19632 | -2.91337 | 34994 ft | 434 kts | 195° |
| 2026-05-04 19:11 | 48.13811 | -2.93854 | 35004 ft | 434 kts | 195° |
| 2026-05-04 19:12 | 48.05135 | -2.97608 | 35000 ft | 433 kts | 195° |
| 2026-05-04 19:13 | 47.99326 | -3.00120 | 34976 ft | 435 kts | 195° |
| 2026-05-04 19:13 | 47.93501 | -3.02632 | 34972 ft | 436 kts | 195° |
| 2026-05-04 19:14 | 47.87673 | -3.05143 | 34981 ft | 436 kts | 195° |
| 2026-05-04 19:14 | 47.81879 | -3.07631 | 34978 ft | 436 kts | 195° |
| 2026-05-04 19:15 | 47.76035 | -3.10131 | 34989 ft | 436 kts | 195° |
| 2026-05-04 19:15 | 47.70202 | -3.12622 | 34999 ft | 435 kts | 195° |
| 2026-05-04 19:16 | 47.64376 | -3.15110 | 35001 ft | 435 kts | 195° |
| 2026-05-04 19:16 | 47.58591 | -3.17574 | 34998 ft | 435 kts | 195° |
| 2026-05-04 19:17 | 47.52775 | -3.20041 | 34995 ft | 434 kts | 195° |
| 2026-05-04 19:17 | 47.46960 | -3.22499 | 34993 ft | 434 kts | 195° |
| 2026-05-04 19:18 | 47.41139 | -3.24954 | 34991 ft | 434 kts | 195° |
| 2026-05-04 19:18 | 47.35367 | -3.27383 | 34989 ft | 434 kts | 195° |
| 2026-05-04 19:19 | 47.29552 | -3.29823 | 34990 ft | 434 kts | 195° |
| 2026-05-04 19:19 | 47.23737 | -3.32262 | 34989 ft | 435 kts | 194° |
| 2026-05-04 19:20 | 47.17906 | -3.34697 | 34982 ft | 436 kts | 194° |
| 2026-05-04 19:20 | 47.12060 | -3.37135 | 34983 ft | 437 kts | 195° |
| 2026-05-04 19:21 | 47.06246 | -3.39557 | 34983 ft | 437 kts | 195° |
| 2026-05-04 19:21 | 47.00392 | -3.41990 | 34983 ft | 437 kts | 195° |
| 2026-05-04 19:22 | 46.94531 | -3.44419 | 34990 ft | 437 kts | 194° |
| 2026-05-04 19:22 | 46.88710 | -3.46828 | 34988 ft | 437 kts | 195° |
| 2026-05-04 19:23 | 46.82852 | -3.49245 | 34998 ft | 436 kts | 195° |
| 2026-05-04 19:23 | 46.77003 | -3.51654 | 34996 ft | 436 kts | 195° |
| 2026-05-04 19:24 | 46.71151 | -3.54061 | 34999 ft | 436 kts | 195° |
| 2026-05-04 19:24 | 46.65343 | -3.56444 | 35005 ft | 436 kts | 195° |
| 2026-05-04 19:25 | 46.59499 | -3.58841 | 35004 ft | 436 kts | 195° |
| 2026-05-04 19:25 | 46.53655 | -3.61216 | 35002 ft | 435 kts | 194° |
| 2026-05-04 19:26 | 46.47843 | -3.63575 | 35016 ft | 436 kts | 195° |
| 2026-05-04 19:26 | 46.41994 | -3.65962 | 35005 ft | 436 kts | 195° |
| 2026-05-04 19:27 | 46.37124 | -3.67939 | 35001 ft | 436 kts | 195° |
| 2026-05-04 19:27 | 46.31222 | -3.70058 | 35002 ft | 435 kts | 187° |
| 2026-05-04 19:28 | 46.25238 | -3.70967 | 35003 ft | 435 kts | 186° |
| 2026-05-04 19:28 | 46.19219 | -3.71860 | 35001 ft | 435 kts | 186° |
| 2026-05-04 19:29 | 46.13200 | -3.72755 | 34998 ft | 434 kts | 186° |
| 2026-05-04 19:29 | 46.07185 | -3.73661 | 34997 ft | 434 kts | 186° |
| 2026-05-04 19:30 | 46.01167 | -3.74552 | 35001 ft | 434 kts | 186° |
| 2026-05-04 19:30 | 45.95200 | -3.75431 | 35000 ft | 434 kts | 186° |
| 2026-05-04 19:31 | 45.89183 | -3.76327 | 35003 ft | 434 kts | 186° |
| 2026-05-04 19:31 | 45.83174 | -3.77211 | 35009 ft | 433 kts | 186° |
| 2026-05-04 19:32 | 45.77174 | -3.78092 | 35012 ft | 433 kts | 186° |
| 2026-05-04 19:32 | 45.71208 | -3.78962 | 35010 ft | 433 kts | 186° |
| 2026-05-04 19:33 | 45.65203 | -3.79840 | 35017 ft | 433 kts | 186° |
| 2026-05-04 19:33 | 45.59211 | -3.80726 | 35020 ft | 433 kts | 186° |
| 2026-05-04 19:34 | 45.53214 | -3.81606 | 35018 ft | 432 kts | 186° |
| 2026-05-04 19:34 | 45.47257 | -3.82470 | 35022 ft | 432 kts | 186° |
| 2026-05-04 19:35 | 45.41261 | -3.83324 | 35019 ft | 433 kts | 186° |
| 2026-05-04 19:35 | 45.35261 | -3.84192 | 35017 ft | 432 kts | 186° |
| 2026-05-04 19:36 | 45.29270 | -3.85068 | 35009 ft | 432 kts | 187° |
| 2026-05-04 19:36 | 45.23289 | -3.85943 | 35020 ft | 432 kts | 187° |
| 2026-05-04 19:37 | 45.17298 | -3.86804 | 35014 ft | 433 kts | 187° |
| 2026-05-04 19:37 | 45.11316 | -3.87645 | 35002 ft | 434 kts | 187° |
| 2026-05-04 19:38 | 45.05294 | -3.88508 | 35005 ft | 434 kts | 187° |
| 2026-05-04 19:38 | 44.99317 | -3.89370 | 35007 ft | 434 kts | 187° |
| 2026-05-04 19:39 | 44.93299 | -3.90234 | 35012 ft | 435 kts | 187° |
| 2026-05-04 19:39 | 44.87278 | -3.91089 | 35016 ft | 435 kts | 187° |
| 2026-05-04 19:40 | 44.81258 | -3.91941 | 35019 ft | 434 kts | 187° |
| 2026-05-04 19:40 | 44.75237 | -3.92800 | 35021 ft | 434 kts | 187° |
| 2026-05-04 19:41 | 44.69213 | -3.93648 | 35030 ft | 434 kts | 187° |
| 2026-05-04 19:41 | 44.63227 | -3.94486 | 35031 ft | 435 kts | 187° |
| 2026-05-04 19:42 | 44.57195 | -3.95330 | 35026 ft | 435 kts | 187° |
| 2026-05-04 19:42 | 44.51173 | -3.96176 | 35026 ft | 434 kts | 187° |
| 2026-05-04 19:43 | 44.45189 | -3.97033 | 35034 ft | 434 kts | 187° |
| 2026-05-04 19:43 | 44.39174 | -3.97889 | 35035 ft | 434 kts | 187° |
| 2026-05-04 19:44 | 44.33153 | -3.98721 | 35034 ft | 434 kts | 187° |
| 2026-05-04 19:44 | 44.27118 | -3.99472 | 35039 ft | 435 kts | 186° |
| 2026-05-04 19:45 | 44.21113 | -4.00125 | 35045 ft | 435 kts | 186° |
| 2026-05-04 19:45 | 44.15071 | -4.00781 | 35028 ft | 435 kts | 186° |
| 2026-05-04 19:46 | 44.09034 | -4.01471 | 35032 ft | 435 kts | 186° |
| 2026-05-04 19:46 | 44.03020 | -4.02167 | 35035 ft | 436 kts | 186° |
| 2026-05-04 19:47 | 43.96968 | -4.02855 | 35037 ft | 436 kts | 186° |
| 2026-05-04 19:47 | 43.90915 | -4.03533 | 35031 ft | 437 kts | 187° |
| 2026-05-04 19:48 | 43.84839 | -4.04217 | 35031 ft | 437 kts | 187° |
| 2026-05-04 19:48 | 43.78771 | -4.04906 | 35037 ft | 438 kts | 187° |
| 2026-05-04 19:49 | 43.72710 | -4.05597 | 35030 ft | 438 kts | 187° |
| 2026-05-04 19:49 | 43.66620 | -4.06286 | 35039 ft | 438 kts | 187° |
| 2026-05-04 19:50 | 43.60534 | -4.06968 | 35043 ft | 438 kts | 187° |
| 2026-05-04 19:50 | 43.54485 | -4.07650 | 35045 ft | 438 kts | 187° |
| 2026-05-04 19:51 | 43.48402 | -4.08339 | 35054 ft | 438 kts | 187° |
| 2026-05-04 19:51 | 43.42322 | -4.09011 | 35060 ft | 438 kts | 187° |
| 2026-05-04 19:52 | 43.36226 | -4.09685 | 35062 ft | 438 kts | 187° |
| 2026-05-04 19:52 | 43.30144 | -4.10356 | 35053 ft | 438 kts | 187° |
| 2026-05-04 19:53 | 43.24052 | -4.11028 | 35055 ft | 438 kts | 187° |
| 2026-05-04 19:53 | 43.17998 | -4.11699 | 35059 ft | 438 kts | 187° |
| 2026-05-04 19:54 | 43.11918 | -4.12377 | 35046 ft | 438 kts | 188° |
| 2026-05-04 19:54 | 43.05838 | -4.13051 | 35053 ft | 438 kts | 188° |
| 2026-05-04 19:55 | 42.99747 | -4.13721 | 35056 ft | 438 kts | 188° |
| 2026-05-04 19:55 | 42.93705 | -4.14386 | 35043 ft | 438 kts | 188° |
| 2026-05-04 19:56 | 42.87629 | -4.15046 | 35051 ft | 438 kts | 188° |
| 2026-05-04 19:56 | 42.81554 | -4.15711 | 35055 ft | 438 kts | 188° |
| 2026-05-04 19:57 | 42.75469 | -4.16380 | 35055 ft | 438 kts | 188° |
| 2026-05-04 19:57 | 42.69395 | -4.17047 | 35052 ft | 438 kts | 188° |
| 2026-05-04 19:58 | 42.63362 | -4.17698 | 35054 ft | 438 kts | 188° |
| 2026-05-04 19:58 | 42.57289 | -4.18357 | 35046 ft | 437 kts | 188° |
| 2026-05-04 19:59 | 42.51217 | -4.19014 | 35027 ft | 437 kts | 189° |
| 2026-05-04 19:59 | 42.45158 | -4.19670 | 35028 ft | 437 kts | 189° |
| 2026-05-04 20:00 | 42.39093 | -4.20320 | 35031 ft | 436 kts | 189° |
| 2026-05-04 20:00 | 42.33076 | -4.20969 | 35028 ft | 436 kts | 189° |
| 2026-05-04 20:01 | 42.26989 | -4.21624 | 35022 ft | 436 kts | 189° |
| 2026-05-04 20:01 | 42.20979 | -4.22272 | 35019 ft | 436 kts | 189° |
| 2026-05-04 20:02 | 42.14929 | -4.22923 | 35016 ft | 435 kts | 189° |
| 2026-05-04 20:02 | 42.08878 | -4.23569 | 35004 ft | 435 kts | 190° |
| 2026-05-04 20:03 | 42.02870 | -4.24199 | 35006 ft | 435 kts | 190° |
| 2026-05-04 20:03 | 41.96836 | -4.24838 | 35010 ft | 435 kts | 190° |
| 2026-05-04 20:04 | 41.90804 | -4.25486 | 34983 ft | 434 kts | 190° |
| 2026-05-04 20:04 | 41.84777 | -4.26129 | 35004 ft | 433 kts | 190° |
| 2026-05-04 20:05 | 41.78796 | -4.26760 | 35014 ft | 433 kts | 190° |
| 2026-05-04 20:05 | 41.72791 | -4.27397 | 35009 ft | 432 kts | 190° |
| 2026-05-04 20:06 | 41.66791 | -4.28037 | 34981 ft | 432 kts | 191° |
| 2026-05-04 20:06 | 41.60795 | -4.28668 | 34989 ft | 431 kts | 191° |
| 2026-05-04 20:07 | 41.54842 | -4.29287 | 34996 ft | 431 kts | 191° |
| 2026-05-04 20:07 | 41.48856 | -4.29908 | 34996 ft | 431 kts | 191° |
| 2026-05-04 20:08 | 41.42862 | -4.30537 | 34975 ft | 431 kts | 191° |
| 2026-05-04 20:08 | 41.36918 | -4.31162 | 34983 ft | 431 kts | 191° |
| 2026-05-04 20:09 | 41.30936 | -4.31787 | 34992 ft | 431 kts | 191° |
| 2026-05-04 20:09 | 41.24953 | -4.32404 | 34970 ft | 431 kts | 191° |
| 2026-05-04 20:10 | 41.18980 | -4.33023 | 34979 ft | 431 kts | 191° |
| 2026-05-04 20:10 | 41.13038 | -4.33643 | 34989 ft | 431 kts | 191° |
| 2026-05-04 20:11 | 41.07063 | -4.34264 | 34996 ft | 431 kts | 191° |
| 2026-05-04 20:11 | 41.01081 | -4.34889 | 34969 ft | 430 kts | 192° |
| 2026-05-04 20:12 | 40.95100 | -4.35500 | 34983 ft | 430 kts | 192° |
| 2026-05-04 20:12 | 40.89167 | -4.36112 | 34990 ft | 430 kts | 192° |
| 2026-05-04 20:13 | 40.83190 | -4.36734 | 34996 ft | 430 kts | 192° |
| 2026-05-04 20:13 | 40.77217 | -4.37349 | 34980 ft | 430 kts | 192° |
| 2026-05-04 20:14 | 40.71271 | -4.37956 | 34991 ft | 430 kts | 192° |
| 2026-05-04 20:14 | 40.65294 | -4.38560 | 34994 ft | 430 kts | 192° |
| 2026-05-04 20:15 | 40.59320 | -4.39172 | 34998 ft | 430 kts | 192° |
| 2026-05-04 20:15 | 40.53354 | -4.39777 | 34995 ft | 430 kts | 192° |
| 2026-05-04 20:16 | 40.47377 | -4.40381 | 34993 ft | 430 kts | 192° |
| 2026-05-04 20:16 | 40.42408 | -4.40890 | 34993 ft | 430 kts | 192° |
| 2026-05-04 20:17 | 40.35463 | -4.41596 | 34971 ft | 431 kts | 192° |
| 2026-05-04 20:17 | 40.30486 | -4.42097 | 34978 ft | 431 kts | 192° |
| 2026-05-04 20:18 | 40.24499 | -4.42698 | 34978 ft | 431 kts | 192° |
| 2026-05-04 20:18 | 40.18512 | -4.43298 | 34979 ft | 431 kts | 192° |
| 2026-05-04 20:19 | 40.12536 | -4.43903 | 34967 ft | 431 kts | 193° |
| 2026-05-04 20:19 | 40.06584 | -4.44498 | 34975 ft | 431 kts | 193° |
| 2026-05-04 20:20 | 40.00605 | -4.45097 | 34978 ft | 431 kts | 193° |
| 2026-05-04 20:20 | 39.94626 | -4.45695 | 34981 ft | 431 kts | 193° |
| 2026-05-04 20:21 | 39.88636 | -4.46292 | 34958 ft | 431 kts | 193° |
| 2026-05-04 20:21 | 39.79656 | -4.47193 | 34972 ft | 431 kts | 193° |
| 2026-05-04 20:22 | 39.73711 | -4.47787 | 34986 ft | 432 kts | 193° |
| 2026-05-04 20:22 | 39.67712 | -4.48380 | 34963 ft | 432 kts | 193° |
| 2026-05-04 20:23 | 39.61710 | -4.48972 | 34976 ft | 432 kts | 193° |
| 2026-05-04 20:23 | 39.55717 | -4.49571 | 34986 ft | 432 kts | 193° |
| 2026-05-04 20:24 | 39.49748 | -4.50166 | 34993 ft | 432 kts | 193° |
| 2026-05-04 20:24 | 39.43740 | -4.50760 | 34993 ft | 434 kts | 193° |
| 2026-05-04 20:25 | 39.37715 | -4.51356 | 35001 ft | 434 kts | 193° |
| 2026-05-04 20:25 | 39.31683 | -4.51945 | 35005 ft | 434 kts | 193° |
| 2026-05-04 20:26 | 39.25698 | -4.52529 | 34977 ft | 433 kts | 193° |
| 2026-05-04 20:26 | 39.19670 | -4.53119 | 34993 ft | 434 kts | 193° |
| 2026-05-04 20:27 | 39.13639 | -4.53710 | 34999 ft | 434 kts | 193° |
| 2026-05-04 20:27 | 39.07622 | -4.54300 | 35005 ft | 434 kts | 193° |
| 2026-05-04 20:28 | 39.01601 | -4.54890 | 34993 ft | 434 kts | 193° |
| 2026-05-04 20:28 | 38.95589 | -4.55482 | 35014 ft | 436 kts | 193° |
| 2026-05-04 20:29 | 38.89576 | -4.56314 | 35019 ft | 431 kts | 197° |
| 2026-05-04 20:29 | 38.83714 | -4.57595 | 35018 ft | 429 kts | 199° |
| 2026-05-04 20:30 | 38.77836 | -4.58965 | 34995 ft | 430 kts | 199° |
| 2026-05-04 20:30 | 38.71908 | -4.60252 | 35007 ft | 431 kts | 198° |
| 2026-05-04 20:31 | 38.66010 | -4.61461 | 35014 ft | 432 kts | 198° |
| 2026-05-04 20:31 | 38.60078 | -4.62664 | 35018 ft | 432 kts | 198° |
| 2026-05-04 20:32 | 38.54140 | -4.63883 | 35001 ft | 431 kts | 198° |
| 2026-05-04 20:32 | 38.48198 | -4.65113 | 35006 ft | 432 kts | 198° |
| 2026-05-04 20:33 | 38.42267 | -4.66342 | 35008 ft | 432 kts | 198° |
| 2026-05-04 20:33 | 38.36331 | -4.67567 | 35017 ft | 432 kts | 198° |
| 2026-05-04 20:34 | 38.30433 | -4.68778 | 35022 ft | 432 kts | 198° |
| 2026-05-04 20:34 | 38.24493 | -4.69996 | 35022 ft | 432 kts | 198° |
| 2026-05-04 20:35 | 38.18553 | -4.71214 | 35023 ft | 432 kts | 198° |
| 2026-05-04 20:35 | 38.12607 | -4.72424 | 35024 ft | 433 kts | 198° |
| 2026-05-04 20:36 | 38.06659 | -4.73634 | 35005 ft | 433 kts | 198° |
| 2026-05-04 20:36 | 38.00707 | -4.74851 | 35013 ft | 433 kts | 198° |
| 2026-05-04 20:37 | 37.94793 | -4.76056 | 34998 ft | 433 kts | 198° |
| 2026-05-04 20:37 | 37.88832 | -4.77270 | 35003 ft | 433 kts | 198° |
| 2026-05-04 20:38 | 37.82881 | -4.78485 | 34793 ft | 432 kts | 199° |
| 2026-05-04 20:38 | 37.80010 | -4.79422 | 34338 ft | 421 kts | 208° |
| 2026-05-04 20:38 | 37.77202 | -4.80552 | 33900 ft | 432 kts | 198° |
| 2026-05-04 20:39 | 37.74130 | -4.80559 | 33360 ft | 455 kts | 177° |
| 2026-05-04 20:39 | 37.71116 | -4.79223 | 32832 ft | 475 kts | 162° |
| 2026-05-04 20:39 | 37.68112 | -4.77449 | 32313 ft | 477 kts | 163° |
| 2026-05-04 20:39 | 37.65077 | -4.75740 | 31790 ft | 478 kts | 164° |
| 2026-05-04 20:40 | 37.62015 | -4.74085 | 31277 ft | 478 kts | 165° |
| 2026-05-04 20:40 | 37.58930 | -4.72462 | 30781 ft | 479 kts | 165° |
| 2026-05-04 20:40 | 37.55850 | -4.70852 | 30298 ft | 480 kts | 165° |
| 2026-05-04 20:40 | 37.52754 | -4.69224 | 29766 ft | 482 kts | 164° |
| 2026-05-04 20:41 | 37.49698 | -4.67600 | 29216 ft | 483 kts | 164° |
| 2026-05-04 20:41 | 37.46612 | -4.65942 | 28668 ft | 480 kts | 163° |
| 2026-05-04 20:41 | 37.43555 | -4.64291 | 28133 ft | 476 kts | 163° |
| 2026-05-04 20:41 | 37.40521 | -4.62654 | 27610 ft | 471 kts | 163° |
| 2026-05-04 20:42 | 37.37521 | -4.61042 | 27056 ft | 467 kts | 163° |
| 2026-05-04 20:42 | 37.34537 | -4.59445 | 26550 ft | 463 kts | 163° |
| 2026-05-04 20:42 | 37.31584 | -4.57868 | 26057 ft | 459 kts | 163° |
| 2026-05-04 20:42 | 37.28685 | -4.56324 | 25573 ft | 455 kts | 163° |
| 2026-05-04 20:43 | 37.25787 | -4.54782 | 25094 ft | 451 kts | 163° |
| 2026-05-04 20:43 | 37.22909 | -4.53249 | 24622 ft | 447 kts | 163° |
| 2026-05-04 20:43 | 37.20056 | -4.51731 | 24158 ft | 443 kts | 163° |
| 2026-05-04 20:43 | 37.17222 | -4.50225 | 23700 ft | 440 kts | 163° |
| 2026-05-04 20:44 | 37.14411 | -4.48735 | 23146 ft | 437 kts | 162° |
| 2026-05-04 20:44 | 37.11623 | -4.47259 | 22621 ft | 433 kts | 162° |
| 2026-05-04 20:44 | 37.08856 | -4.45794 | 22079 ft | 429 kts | 162° |
| 2026-05-04 20:44 | 37.06121 | -4.44346 | 21561 ft | 425 kts | 162° |
| 2026-05-04 20:45 | 37.03404 | -4.42906 | 21040 ft | 422 kts | 162° |
| 2026-05-04 20:45 | 37.00714 | -4.41482 | 20532 ft | 418 kts | 162° |
| 2026-05-04 20:45 | 36.98078 | -4.40088 | 20051 ft | 414 kts | 162° |
| 2026-05-04 20:45 | 36.95430 | -4.38688 | 19555 ft | 411 kts | 162° |
| 2026-05-04 20:46 | 36.92803 | -4.37301 | 19078 ft | 407 kts | 162° |
| 2026-05-04 20:46 | 36.90197 | -4.35926 | 18587 ft | 404 kts | 162° |
| 2026-05-04 20:46 | 36.87618 | -4.34565 | 18093 ft | 400 kts | 162° |
| 2026-05-04 20:46 | 36.85094 | -4.33233 | 17560 ft | 397 kts | 162° |
| 2026-05-04 20:47 | 36.82547 | -4.31892 | 17047 ft | 394 kts | 162° |
| 2026-05-04 20:47 | 36.80024 | -4.30568 | 16532 ft | 393 kts | 162° |
| 2026-05-04 20:47 | 36.77512 | -4.29253 | 16021 ft | 391 kts | 162° |
| 2026-05-04 20:47 | 36.75020 | -4.27947 | 15522 ft | 389 kts | 162° |
| 2026-05-04 20:48 | 36.72529 | -4.26644 | 14999 ft | 385 kts | 162° |
| 2026-05-04 20:48 | 36.70101 | -4.25372 | 14410 ft | 370 kts | 162° |
| 2026-05-04 20:48 | 36.67769 | -4.24146 | 13858 ft | 358 kts | 162° |
| 2026-05-04 20:48 | 36.65531 | -4.22970 | 13226 ft | 347 kts | 162° |
| 2026-05-04 20:49 | 36.63336 | -4.21820 | 12606 ft | 337 kts | 162° |
| 2026-05-04 20:49 | 36.61197 | -4.20700 | 12002 ft | 329 kts | 162° |
| 2026-05-04 20:49 | 36.59114 | -4.19614 | 11411 ft | 322 kts | 162° |
| 2026-05-04 20:49 | 36.57067 | -4.18547 | 10825 ft | 316 kts | 163° |
| 2026-05-04 20:50 | 36.55057 | -4.17498 | 10280 ft | 311 kts | 163° |
| 2026-05-04 20:50 | 36.53063 | -4.16457 | 9845 ft | 311 kts | 162° |
| 2026-05-04 20:50 | 36.51088 | -4.15427 | 9388 ft | 311 kts | 162° |
| 2026-05-04 20:50 | 36.49094 | -4.14387 | 8904 ft | 310 kts | 162° |
| 2026-05-04 20:51 | 36.47131 | -4.13362 | 8310 ft | 300 kts | 161° |
| 2026-05-04 20:51 | 36.45230 | -4.12368 | 7737 ft | 291 kts | 161° |
| 2026-05-04 20:51 | 36.43377 | -4.11456 | 7263 ft | 277 kts | 168° |
| 2026-05-04 20:51 | 36.41544 | -4.11457 | 6754 ft | 257 kts | 203° |
| 2026-05-04 20:52 | 36.40184 | -4.12693 | 6221 ft | 244 kts | 238° |
| 2026-05-04 20:52 | 36.39778 | -4.14651 | 5835 ft | 233 kts | 276° |
| 2026-05-04 20:52 | 36.40464 | -4.16416 | 5372 ft | 231 kts | 316° |
| 2026-05-04 20:52 | 36.41900 | -4.17284 | 5102 ft | 235 kts | 342° |
| 2026-05-04 20:53 | 36.43469 | -4.17900 | 4855 ft | 235 kts | 341° |
| 2026-05-04 20:53 | 36.44915 | -4.18758 | 4658 ft | 227 kts | 322° |
| 2026-05-04 20:53 | 36.46077 | -4.20079 | 4637 ft | 227 kts | 315° |
| 2026-05-04 20:53 | 36.47138 | -4.21519 | 4619 ft | 225 kts | 311° |
| 2026-05-04 20:54 | 36.48167 | -4.22977 | 4585 ft | 227 kts | 311° |
| 2026-05-04 20:54 | 36.49215 | -4.24441 | 4568 ft | 225 kts | 312° |
| 2026-05-04 20:54 | 36.50259 | -4.25891 | 4542 ft | 225 kts | 312° |
| 2026-05-04 20:54 | 36.51304 | -4.27343 | 4393 ft | 224 kts | 312° |
| 2026-05-04 20:55 | 36.52324 | -4.28760 | 4127 ft | 221 kts | 312° |
| 2026-05-04 20:55 | 36.53353 | -4.30190 | 3840 ft | 222 kts | 312° |
| 2026-05-04 20:55 | 36.54377 | -4.31615 | 3547 ft | 220 kts | 313° |
| 2026-05-04 20:55 | 36.55391 | -4.33026 | 3269 ft | 218 kts | 313° |
| 2026-05-04 20:56 | 36.56395 | -4.34423 | 2970 ft | 215 kts | 313° |
| 2026-05-04 20:56 | 36.57389 | -4.35807 | 2692 ft | 213 kts | 313° |
| 2026-05-04 20:56 | 36.58371 | -4.37175 | 2400 ft | 210 kts | 313° |
| 2026-05-04 20:56 | 36.59316 | -4.38492 | 2123 ft | 197 kts | 313° |
| 2026-05-04 20:57 | 36.60179 | -4.39697 | 1872 ft | 177 kts | 312° |
| 2026-05-04 20:57 | 36.60946 | -4.40766 | 1686 ft | 159 kts | 312° |
| 2026-05-04 20:57 | 36.61656 | -4.41756 | 1473 ft | 148 kts | 311° |
| 2026-05-04 20:57 | 36.62322 | -4.42685 | 1265 ft | 139 kts | 310° |
| 2026-05-04 20:58 | 36.62930 | -4.43533 | 1100 ft | 125 kts | 309° |
| 2026-05-04 20:58 | 36.63490 | -4.44315 | 933 ft | 118 kts | 308° |
| 2026-05-04 20:58 | 36.64037 | -4.45079 | 792 ft | 118 kts | 307° |
| 2026-05-04 20:58 | 36.64580 | -4.45838 | 647 ft | 115 kts | 308° |
| 2026-05-04 20:59 | 36.65119 | -4.46591 | 478 ft | 119 kts | 309° |
| 2026-05-04 20:59 | 36.65678 | -4.47357 | 379 ft | 118 kts | 308° |
| 2026-05-04 20:59 | 36.66226 | -4.48134 | 242 ft | 120 kts | 308° |
| 2026-05-04 20:59 | 36.66772 | -4.48917 | 47 ft | 114 kts | 311° |
| 2026-05-04 21:00 | 36.67204 | -4.49511 | 47 ft | 68 kts | 311° |
| 2026-05-04 21:00 | 36.67463 | -4.49871 | 49 ft | 49 kts | 311° |
| 2026-05-04 21:00 | 36.67658 | -4.50129 | 54 ft | 28 kts | 320° |
| 2026-05-04 21:00 | 36.67775 | -4.50210 | 53 ft | 15 kts | 339° |
| 2026-05-04 21:01 | 36.67846 | -4.50239 | 49 ft | 11 kts | 346° |
| 2026-05-04 21:01 | 36.67901 | -4.50145 | 43 ft | 19 kts | 79° |
| 2026-05-04 21:01 | 36.67891 | -4.50009 | 41 ft | 14 kts | 88° |
| 2026-05-04 21:01 | 36.67951 | -4.49925 | 42 ft | 10 kts | 28° |
| 2026-05-04 21:02 | 36.67992 | -4.49925 | 42 ft | 0 kts | 345° |